»·PEaware :: DAL2388 KSLC-KDEN

DAL2388 :: KSLC-KDEN

FLIGHT INFORMATION

Flight Status: Arrived
Operator:
Delta Air Lines
More flights by this operator :: More flights under this callsign
Pilot: Alfredo R. (12181)
Aircraft: BOEING 737-800
(B738)
More flights by this aircraft type
Origin: KSLC Salt Lake City Intl
United States
Destination: KDEN Denver Intl
United States
More flights between these airports :: More routes between these airports
Route: LEETZ6 CHE FRNCH3
File this flight plan on PilotEdge
Remarks:
Altitude:
(Current/Filed)
29,000ft
Speed:
(Current/Filed)
425kts
Departed: 30-Apr-18 08:21 PM
Arrived: 30-Apr-18 09:31 PM
Distance/Time
Traveled:
339nm/1:10
Distance/Time
To Go:
Arrived

Flight Plot

Page will automatically refresh every two minutes.

Flight plan parsing failed; only flown route is shown


Map Options




Map Legend


Flown Route
Filed Route
Departure Airport
Arrival Airport
Navaid (VOR, NDB)
Fix

Horizontal Profiles

Position Reports

Time Latitude Longitude Heading Altitude Ground
Speed
30-Apr-18 19:50 40.789254 -111.981163 194 4235ft 0kts
30-Apr-18 19:51 40.789254 -111.981163 195 4235ft 0kts
30-Apr-18 19:52 40.789254 -111.981163 195 4235ft 0kts
30-Apr-18 19:53 40.789254 -111.981163 195 4235ft 0kts
30-Apr-18 19:54 40.789254 -111.981163 195 4235ft 0kts
30-Apr-18 19:55 40.789254 -111.981163 195 4235ft 0kts
30-Apr-18 19:56 40.789254 -111.981163 194 4235ft 0kts
30-Apr-18 19:57 40.789254 -111.981163 195 4235ft 0kts
30-Apr-18 19:58 40.789254 -111.981163 195 4235ft 0kts
30-Apr-18 19:59 40.789254 -111.981163 195 4235ft 0kts
30-Apr-18 20:00 40.789352 -111.981128 194 4235ft 2kts
30-Apr-18 20:01 40.789853 -111.981022 148 4235ft 2kts
30-Apr-18 20:02 40.789947 -111.981467 84 4235ft 0kts
30-Apr-18 20:03 40.789947 -111.981467 84 4235ft 0kts
30-Apr-18 20:04 40.789947 -111.981467 84 4235ft 0kts
30-Apr-18 20:05 40.789947 -111.981467 84 4235ft 0kts
30-Apr-18 20:06 40.789947 -111.981467 84 4235ft 0kts
30-Apr-18 20:07 40.789947 -111.981467 84 4235ft 0kts
30-Apr-18 20:08 40.789953 -111.981377 84 4235ft 1kts
30-Apr-18 20:09 40.790000 -111.980189 80 4235ft 5kts
30-Apr-18 20:11 40.791311 -111.979524 355 4235ft 7kts
30-Apr-18 20:12 40.792062 -111.977881 80 4235ft 7kts
30-Apr-18 20:13 40.793763 -111.977528 355 4234ft 8kts
30-Apr-18 20:14 40.796556 -111.977856 354 4235ft 14kts
30-Apr-18 20:15 40.800271 -111.978284 354 4235ft 14kts
30-Apr-18 20:16 40.803903 -111.978252 354 4234ft 13kts
30-Apr-18 20:17 40.806975 -111.978593 10 4235ft 4kts
30-Apr-18 20:18 40.807103 -111.978524 30 4235ft 0kts
30-Apr-18 20:19 40.807208 -111.978434 37 4235ft 3kts
30-Apr-18 20:20 40.806417 -111.976830 174 4235ft 13kts
30-Apr-18 20:21 40.790061 -111.974957 174 4235ft 146kts
30-Apr-18 20:22 40.749432 -111.986617 246 5442ft 187kts
30-Apr-18 20:23 40.761019 -112.046501 313 6734ft 214kts
30-Apr-18 20:24 40.796106 -112.111313 306 8757ft 246kts
30-Apr-18 20:25 40.843774 -112.176359 314 10605ft 264kts
30-Apr-18 20:26 40.899454 -112.232533 346 13324ft 270kts
30-Apr-18 20:27 40.974157 -112.242999 354 15512ft 284kts
30-Apr-18 20:28 41.022048 -112.167099 77 16968ft 332kts
30-Apr-18 20:29 41.021595 -112.050849 112 18924ft 342kts
30-Apr-18 20:30 40.990499 -111.938799 107 20650ft 356kts
30-Apr-18 20:31 40.963650 -111.807521 107 21822ft 389kts
30-Apr-18 20:32 40.936928 -111.675015 107 23600ft 396kts
30-Apr-18 20:33 40.918193 -111.534326 96 24863ft 418kts
30-Apr-18 20:34 40.907662 -111.385647 100 26307ft 427kts
30-Apr-18 20:34 40.893021 -111.259064 102 27409ft 435kts
30-Apr-18 20:35 40.875163 -111.108858 103 28576ft 444kts
30-Apr-18 20:36 40.855552 -110.946619 103 28995ft 475kts
30-Apr-18 20:37 40.834410 -110.773698 102 28987ft 492kts
30-Apr-18 20:38 40.812879 -110.599455 102 28983ft 498kts
30-Apr-18 20:39 40.790851 -110.423987 102 29001ft 495kts
30-Apr-18 20:40 40.768248 -110.245495 103 28944ft 495kts
30-Apr-18 20:41 40.745431 -110.067406 103 28950ft 499kts
30-Apr-18 20:42 40.730360 -109.884821 98 28920ft 503kts
30-Apr-18 20:43 40.717683 -109.702610 99 28912ft 502kts
30-Apr-18 20:44 40.704561 -109.520985 99 28913ft 502kts
30-Apr-18 20:45 40.691251 -109.340859 99 28906ft 483kts
30-Apr-18 20:46 40.677850 -109.164153 99 28907ft 492kts
30-Apr-18 20:47 40.664097 -108.986022 100 28909ft 489kts
30-Apr-18 20:48 40.650008 -108.807833 99 28917ft 488kts
30-Apr-18 20:49 40.635696 -108.630696 99 28929ft 492kts
30-Apr-18 20:50 40.620999 -108.452142 99 28932ft 492kts
30-Apr-18 20:51 40.606219 -108.276256 100 28957ft 490kts
30-Apr-18 20:52 40.590969 -108.097671 100 28951ft 493kts
30-Apr-18 20:53 40.575422 -107.918709 100 28954ft 493kts
30-Apr-18 20:54 40.559564 -107.739810 100 28958ft 493kts
30-Apr-18 20:55 40.543372 -107.560948 100 28959ft 493kts
30-Apr-18 20:56 40.526915 -107.382274 100 28958ft 495kts
30-Apr-18 20:57 40.513581 -107.203236 97 28970ft 495kts
30-Apr-18 20:58 40.504300 -107.022830 97 28969ft 494kts
30-Apr-18 20:59 40.494826 -106.846370 97 28627ft 480kts
30-Apr-18 21:00 40.485327 -106.675430 97 27147ft 464kts
30-Apr-18 21:01 40.475877 -106.511459 97 25716ft 455kts
30-Apr-18 21:02 40.466380 -106.350386 98 24484ft 439kts
30-Apr-18 21:03 40.457023 -106.194855 98 23426ft 422kts
30-Apr-18 21:04 40.448011 -106.047818 98 22398ft 408kts
30-Apr-18 21:05 40.431699 -105.902193 106 21398ft 399kts
30-Apr-18 21:06 40.409491 -105.762278 106 20401ft 392kts
30-Apr-18 21:07 40.387489 -105.624442 106 19401ft 378kts
30-Apr-18 21:08 40.366873 -105.495638 106 18356ft 347kts
30-Apr-18 21:09 40.329527 -105.388573 135 17489ft 321kts
30-Apr-18 21:10 40.272622 -105.301357 135 16694ft 318kts
30-Apr-18 21:11 40.216002 -105.213687 134 15883ft 319kts
30-Apr-18 21:12 40.158988 -105.125086 134 15070ft 317kts
30-Apr-18 21:13 40.102864 -105.037858 133 14229ft 315kts
30-Apr-18 21:14 40.049976 -104.955799 133 13418ft 312kts
30-Apr-18 21:15 39.996078 -104.872334 132 12594ft 311kts
30-Apr-18 21:16 39.934371 -104.806850 175 11718ft 276kts
30-Apr-18 21:17 39.865019 -104.806656 183 11019ft 254kts
30-Apr-18 21:18 39.796052 -104.808456 183 11028ft 253kts
30-Apr-18 21:19 39.727101 -104.809066 182 10586ft 253kts
30-Apr-18 21:20 39.658373 -104.809935 182 9695ft 243kts
30-Apr-18 21:21 39.594029 -104.810884 182 9049ft 235kts
30-Apr-18 21:22 39.549624 -104.768672 91 9041ft 225kts
30-Apr-18 21:23 39.561131 -104.695766 33 9075ft 212kts
30-Apr-18 21:24 39.612447 -104.664596 2 9078ft 208kts
30-Apr-18 21:25 39.667172 -104.662589 357 8565ft 183kts
30-Apr-18 21:26 39.716438 -104.662033 358 7639ft 167kts
30-Apr-18 21:27 39.760787 -104.661390 359 6746ft 151kts
30-Apr-18 21:28 39.802416 -104.660939 2 5958ft 151kts
30-Apr-18 21:29 39.841418 -104.660304 358 5407ft 75kts
30-Apr-18 21:30 39.852542 -104.661318 325 5412ft 8kts
30-Apr-18 21:31 39.853007 -104.662329 255 5415ft 7kts
30-Apr-18 21:32 39.852767 -104.668190 270 5405ft 21kts
30-Apr-18 21:33 39.852763 -104.675322 269 5381ft 17kts
30-Apr-18 21:34 39.853073 -104.677559 0 5366ft 0kts
30-Apr-18 21:35 39.853255 -104.677483 32 5367ft 0kts
30-Apr-18 21:36 39.853261 -104.677477 34 5367ft 0kts
30-Apr-18 21:37 39.853261 -104.677477 34 5367ft 0kts
30-Apr-18 21:38 39.853261 -104.677478 34 5367ft 0kts
30-Apr-18 21:39 39.853261 -104.677478 34 5367ft 0kts

Navigation Log

Ident Type
Flight plan parsing failed, navigation log unavailable